KDLS

Columbia Gorge Regional / The Dalles Municipal Airport

The Dalles, Oregon, USA
KDLS 200905Z 2009/2106 VRB03KT 6SM BR SCT007 SCT040 BKN110 FM201400 32004KT 4SM -RA BR SCT007 BKN040 FM202300 31004KT 6SM BR VCSH SCT030 BKN040 OVC080 FM210300 VRB03KT 3SM BR SCT012 OVC100
Issued Valid From Valid To
Jan-20 @ 09:05 UTC
(2 hours ago)
Jan-20 @ 09:00 UTC
(2 hours ago)
Jan-21 @ 06:00 UTC
(in 19 hours)
Jan-20 @ 09:00 to Jan-20 @ 14:00
KDLS 200905Z 2009/2106 VRB03KT 6SM BR SCT007 SCT040 BKN110
Wind Visibility Clouds Conditions
Variable at 3 knots 6 miles
  • Scattered at 700' AGL
  • Scattered at 4,000' AGL
  • Broken at 11,000' AGL
  • Mist
From Jan-20 @ 14:00 to Jan-20 @ 23:00
FM201400 32004KT 4SM -RA BR SCT007 BKN040
Wind Visibility Clouds Conditions
320° at 4 knots 4 miles
  • Scattered at 700' AGL
  • Broken at 4,000' AGL
  • Light Rain
  • Mist
From Jan-20 @ 23:00 to Jan-21 @ 03:00
FM202300 31004KT 6SM BR VCSH SCT030 BKN040 OVC080
Wind Visibility Clouds Conditions
310° at 4 knots 6 miles
  • Scattered at 3,000' AGL
  • Broken at 4,000' AGL
  • Overcast at 8,000' AGL
  • Mist
From Jan-21 @ 03:00 to Jan-21 @ 06:00
FM210300 VRB03KT 3SM BR SCT012 OVC100
Wind Visibility Clouds Conditions
Variable at 3 knots 3 miles
  • Scattered at 1,200' AGL
  • Overcast at 10,000' AGL
  • Mist
KDLS 200905Z 2009/2106 VRB03KT 6SM BR SCT007 SCT040 BKN110 FM201400 32004KT 4SM -RA BR SCT007 BKN040 FM202300 31004KT 6SM BR VCSH SCT030 BKN040 OVC080 FM210300 VRB03KT 3SM BR SCT012 OVC100
Issued Jan-20 @ 09:05 UTC
(2 hours ago)
Valid From Jan-20 @ 09:00 UTC
(2 hours ago)
Valid To Jan-21 @ 06:00 UTC
(in 19 hours)
Jan-20 @ 09:00 - Jan-20 @ 14:00
Wind Visibility
Variable at 3 knots 6 miles
Clouds
  • Scattered at 700' AGL
  • Scattered at 4,000' AGL
  • Broken at 11,000' AGL
Conditions
  • Mist
From Jan-20 @ 14:00 - Jan-20 @ 23:00
Wind Visibility
320° at 4 knots 4 miles
Clouds
  • Scattered at 700' AGL
  • Broken at 4,000' AGL
Conditions
  • Light Rain
  • Mist
From Jan-20 @ 23:00 - Jan-21 @ 03:00
Wind Visibility
310° at 4 knots 6 miles
Clouds
  • Scattered at 3,000' AGL
  • Broken at 4,000' AGL
  • Overcast at 8,000' AGL
Conditions
  • Mist
From Jan-21 @ 03:00 - Jan-21 @ 06:00
Wind Visibility
Variable at 3 knots 3 miles
Clouds
  • Scattered at 1,200' AGL
  • Overcast at 10,000' AGL
Conditions
  • Mist